Tuscaloosa, AL

9:31 AM CST on December 18, 2018 (GMT -0600)
Glendale Gardens | | Change Station
Active Advisory: Dense Fog Advisory

Elev 2 ft 33.19 °N, 87.54 °W | Updated 3 seconds ago

Clear
Clear
41.4 °F
Feels Like 41 °F
N
0
Wind Variable Wind from SSW
Gusts 0.0 mph

Today
High -- | Low -- °F
--% Chance of Precip.
Yesterday
High -- | Low -- °F
Precip. -- in
Pressure 30.21 in
Visibility 7.0 miles
Clouds Clear
Windchill 41 °F
Dew Point 20 °F
Humidity 42%
Rainfall 0.00 in
Snow Depth Not available.
6:48 AM 4:45 PM
Waxing Gibbous, 80% visible
METAR KTCL 181453Z 06003KT 7SM CLR 05/03 A3021 RMK AO2 SLP229 T00500033 53008
Pressure 30.21 in
Visibility 7.0 miles
Clouds Clear
Windchill 41 °F
Dew Point 20 °F
Humidity 42%
Rainfall 0.00 in
Snow Depth Not available.
6:48 AM 4:45 PM
Waxing Gibbous, 80% visible
METAR KTCL 181453Z 06003KT 7SM CLR 05/03 A3021 RMK AO2 SLP229 T00500033 53008

Get Your Daily Forecast Email!

Thanks for signing up!

Be on the lookout for a verification email in your inbox.

You'll start receiving severe weather alerts in your inbox..

×

10-Day Weather Forecast

Almanac

Astronomy

Dec. 18, 2018 Rise Set
Actual Time
Civil Twilight
Nautical Twilight
Astronomical Twilight
Moon
Length of Visible Light
Length of Day
Tomorrow will be .
, % of the Moon is Illuminated

Today's Extremes

State Highs State Lows

Community

WunderPhotos

Category 6

Welcome to Category 6. This is the collective home for Weather Underground's featured writeups by Dr. Jeff Masters (right), Bob Henson (left), Chris Burt, and other regular contributors.

Nearby

Air Quality

  Air Quality AQ Index Pollutant
Not available.

Snow Depth

Station Depth Elevation

Earthquake Activity

City Distance Mag. Time & Date
Minimum magnitude displayed is 2.5.

Coastal Water Temperatures

Place Temperature

Stations

Nearby Weather Stations

Station Location Temp. Windchill Dew Point Humidity Wind Precip. Elev Updated Type
                   

Watches & Warnings

Dense Fog Advisory
Issued: 12:42 AM CST Dec. 18, 2018 – National Weather Service

... Dense fog advisory in effect until 10 am CST this morning...

The National Weather Service in Birmingham has issued a dense fog
advisory, which is in effect until 10 am CST this morning.

* Visibility... will drop to one quarter of mile at times.

* Impacts... of the dense fog will make travel hazardous due to
the reduced visibilities.

Precautionary/preparedness actions...

A dense fog advisory means visibilities will frequently be
reduced to a quarter mile or less. If driving, slow down, use
your low beam headlights, and leave plenty of distance ahead of
you.